FMCH

Details ICAO FMCH (HAH)
Name PRINCE SAID IBRAHIM
Region Comoros, Mayotte, Réunion and Madagascar
Timezone Indian/Comoro (UTC+3.0)
Plans Departing 56
Arriving 84
Stats Elevation 93 ft / 28 m (AMSL)
Location -11.533663° 43.271848°
Runways 1
Magnetic Variation 6.430° W
Sunrise 2018-06-25 03:27:14 UTC / 2018-06-25 06:27:14 Local
Sunset 2018-06-25 14:54:09 UTC / 2018-06-25 17:54:09 Local
Advertisement - Login to hide

Runways

ID Width Length Bearing (true) Bearing (mag) Surface Threshold Offset Overrun Length
02 148 ft / 45 m 9,576 ft / 2,919 m 9.88° 16.31° Asphalt 0 ft / 0 m 200 ft / 61 m
20 148 ft / 45 m 9,576 ft / 2,919 m 189.88° 196.31° Asphalt 0 ft / 0 m 200 ft / 61 m

Approach Navaids

Runway Type Ident Frequency Range Bearing (true) Bearing (mag) Slope Elevation
02 Localiser IHA 110.30 MHz 18 nm / 33 km 9.87° 16.30° - 78 ft / 24 m (AMSL)
02 Glidescope IHA 110.30 MHz 10 nm / 19 km 9.88° 16.31° 3.00° 77 ft / 23 m (AMSL)
02 DME IHA 110.30 MHz 18 nm / 33 km - - - 93 ft / 28 m (AMSL)

Map

Weather


0- 5 10 15 20 25 30 35+ Temperature / ° C

Clouds and Precipitation
Forecast for 2018-06-25 18:00 UTC. Updated 2 hours ago

Ground ~20,000 ft ~40,000 ft Winds

METAR

FMCH 251700Z 09004KT 9999 FEW020 24/20 Q1017 NOSIG

TAF

TAF FMCH 251100Z 2512/2618 20012KT 9999 FEW020 SCT030 BECMG 2516/2518 09003KT BECMG 2604/2606 20010KT

Frequencies

Tower 119.70 MHz TWR
Warning: Do not use this data for real-world aviation or navigation. No guarantee of current accuracy is given.